Time,TemperatureF,DewpointF,PressureIn,WindDirection,WindDirectionDegrees,WindSpeedMPH,WindSpeedGustMPH,Humidity,HourlyPrecipIn,Conditions,Clouds,dailyrainin,SoftwareType,DateUTC
2013-07-03 00:02:00,62.0,60.0,30.10,West,262,0.0,2.0,94,0.00,,,0.02,,2013-07-03 04:02:00,
2013-07-03 00:11:00,62.0,60.0,30.10,NNE,23,0.0,1.0,94,0.00,,,0.02,,2013-07-03 04:11:00,
2013-07-03 00:22:00,62.0,61.0,30.10,NNE,23,0.0,2.0,95,0.00,,,0.02,,2013-07-03 04:22:00,
2013-07-03 00:34:00,62.0,61.0,30.10,North,5,1.0,4.0,95,0.00,,,0.02,,2013-07-03 04:34:00,
2013-07-03 00:43:00,62.0,61.0,30.10,North,5,1.0,4.0,95,0.00,,,0.02,,2013-07-03 04:43:00,
2013-07-03 00:52:00,62.0,61.0,30.09,NNE,13,1.0,6.0,95,0.00,,,0.02,,2013-07-03 04:52:00,
2013-07-03 01:02:00,62.0,61.0,30.09,NNE,13,1.0,6.0,95,0.00,,,0.02,,2013-07-03 05:02:00,
2013-07-03 01:11:00,62.0,61.0,30.09,North,5,0.0,3.0,95,0.00,,,0.02,,2013-07-03 05:11:00,
2013-07-03 01:23:00,62.0,61.0,30.09,North,5,0.0,3.0,95,0.00,,,0.02,,2013-07-03 05:23:00,
2013-07-03 01:48:00,62.0,61.0,30.08,NE,41,0.0,2.0,96,0.00,,,0.02,,2013-07-03 05:48:00,
2013-07-03 02:01:00,62.0,61.0,30.07,NE,41,0.0,1.0,96,0.00,,,0.02,,2013-07-03 06:01:00,
2013-07-03 02:08:00,62.0,61.0,30.07,NE,41,0.0,1.0,96,0.00,,,0.02,,2013-07-03 06:08:00,
2013-07-03 02:15:00,62.0,61.0,30.07,NE,41,0.0,1.0,96,0.00,,,0.02,,2013-07-03 06:15:00,
2013-07-03 02:26:00,62.0,61.0,30.07,NE,41,0.0,1.0,96,0.00,,,0.02,,2013-07-03 06:26:00,
2013-07-03 02:39:00,62.0,61.0,30.07,NE,41,0.0,1.0,96,0.00,,,0.02,,2013-07-03 06:39:00,
2013-07-03 02:50:00,62.0,61.0,30.07,NE,41,0.0,1.0,96,0.00,,,0.02,,2013-07-03 06:50:00,
2013-07-03 02:58:00,62.0,61.0,30.06,NE,41,0.0,0.0,96,0.00,,,0.02,,2013-07-03 06:58:00,
2013-07-03 03:07:00,62.0,61.0,30.07,ENE,65,0.0,2.0,96,0.00,,,0.02,,2013-07-03 07:07:00,
2013-07-03 03:16:00,62.0,61.0,30.07,ENE,65,0.0,2.0,96,0.00,,,0.02,,2013-07-03 07:16:00,
2013-07-03 03:38:00,62.0,61.0,30.06,ENE,65,0.0,1.0,96,0.00,,,0.02,,2013-07-03 07:38:00,
2013-07-03 03:47:00,62.0,61.0,30.06,ENE,65,0.0,1.0,96,0.00,,,0.02,,2013-07-03 07:47:00,
2013-07-03 04:02:00,62.0,61.0,30.06,ENE,65,0.0,0.0,96,0.00,,,0.02,,2013-07-03 08:02:00,
2013-07-03 04:38:00,62.0,61.0,30.05,South,171,0.0,3.0,96,0.00,,,0.02,,2013-07-03 08:38:00,
2013-07-03 04:45:00,62.0,61.0,30.05,SSE,162,0.0,2.0,96,0.00,,,0.02,,2013-07-03 08:45:00,
2013-07-03 04:58:00,62.0,61.0,30.05,SSE,162,0.0,2.0,96,0.00,,,0.02,,2013-07-03 08:58:00,
2013-07-03 05:07:00,62.0,61.0,30.05,SSE,162,0.0,2.0,96,0.00,,,0.02,,2013-07-03 09:07:00,
2013-07-03 05:47:00,63.0,62.0,30.05,SSE,153,0.0,0.0,96,0.00,,,0.01,,2013-07-03 09:47:00,
2013-07-03 05:58:00,63.0,62.0,30.06,SSE,153,0.0,0.0,96,0.00,,,0.01,,2013-07-03 09:58:00,
2013-07-03 06:17:00,63.0,62.0,30.06,SSE,153,0.0,1.0,96,0.00,,,0.01,,2013-07-03 10:17:00,
2013-07-03 06:28:00,63.0,62.0,30.06,SSE,153,0.0,0.0,96,0.00,,,0.01,,2013-07-03 10:28:00,
2013-07-03 06:36:00,63.0,62.0,30.06,SSE,153,0.0,0.0,96,0.00,,,0.01,,2013-07-03 10:36:00,
2013-07-03 06:45:00,63.0,62.0,30.07,SSE,153,0.0,1.0,96,0.00,,,0.01,,2013-07-03 10:45:00,
2013-07-03 07:16:00,64.0,63.0,30.07,SW,220,0.0,3.0,95,0.00,,,0.01,,2013-07-03 11:16:00,
2013-07-03 07:38:00,64.0,63.0,30.07,NNE,28,1.0,3.0,95,0.00,,,0.01,,2013-07-03 11:38:00,
2013-07-03 08:08:00,67.0,64.0,30.07,SE,145,0.0,4.0,91,0.00,,,0.01,,2013-07-03 12:08:00,
2013-07-03 08:16:00,67.0,64.0,30.07,SE,145,0.0,4.0,91,0.00,,,0.01,,2013-07-03 12:16:00,
2013-07-03 08:26:00,68.0,65.0,30.07,SE,126,1.0,3.0,90,0.00,,,0.01,,2013-07-03 12:26:00,
2013-07-03 08:37:00,70.0,66.0,30.07,SSE,165,0.0,3.0,88,0.00,,,0.01,,2013-07-03 12:37:00,
2013-07-03 08:45:00,70.0,66.0,30.07,SSE,165,0.0,3.0,88,0.00,,,0.01,,2013-07-03 12:45:00,
2013-07-03 09:08:00,73.0,69.0,30.07,SSE,163,1.0,3.0,86,0.00,,,0.01,,2013-07-03 13:08:00,
2013-07-03 10:56:00,82.0,73.0,30.06,SW,217,2.0,7.0,75,0.00,,,0.00,,2013-07-03 14:56:00,
2013-07-03 11:06:00,82.0,73.0,30.06,SW,217,2.0,7.0,75,0.00,,,0.00,,2013-07-03 15:06:00,
2013-07-03 11:15:00,83.0,73.0,30.06,South,178,1.0,12.0,73,0.00,,,0.00,,2013-07-03 15:15:00,
2013-07-03 11:26:00,83.0,74.0,30.06,SE,124,2.0,6.0,74,0.00,,,0.00,,2013-07-03 15:26:00,
2013-07-03 11:47:00,83.0,74.0,30.06,West,265,2.0,9.0,74,0.00,,,0.00,,2013-07-03 15:47:00,
2013-07-03 11:57:00,83.0,73.0,30.06,WSW,248,5.0,9.0,72,0.00,,,0.00,,2013-07-03 15:57:00,
2013-07-03 12:07:00,83.0,73.0,30.06,WSW,248,5.0,9.0,72,0.00,,,0.00,,2013-07-03 16:07:00,
2013-07-03 12:17:00,82.0,72.0,30.07,SE,132,3.0,12.0,72,0.00,,,0.00,,2013-07-03 16:17:00,
2013-07-03 12:46:00,85.0,73.0,30.06,West,266,4.0,9.0,67,0.00,,,0.00,,2013-07-03 16:46:00,
2013-07-03 13:01:00,86.0,74.0,30.06,SSW,198,1.0,5.0,68,0.00,,,0.00,,2013-07-03 17:01:00,
2013-07-03 13:08:00,86.0,74.0,30.06,SSW,198,1.0,5.0,68,0.00,,,0.00,,2013-07-03 17:08:00,
2013-07-03 13:17:00,88.0,75.0,30.05,NNW,332,2.0,7.0,65,0.00,,,0.00,,2013-07-03 17:17:00,
2013-07-03 13:26:00,88.0,75.0,30.05,SSE,164,2.0,6.0,65,0.00,,,0.00,,2013-07-03 17:26:00,
2013-07-03 13:40:00,88.0,75.0,30.05,SSE,164,2.0,6.0,65,0.00,,,0.00,,2013-07-03 17:40:00,
2013-07-03 13:56:00,89.0,74.0,30.04,NNW,334,2.0,10.0,61,0.00,,,0.00,,2013-07-03 17:56:00,
2013-07-03 14:08:00,89.0,74.0,30.04,NNW,334,2.0,10.0,61,0.00,,,0.00,,2013-07-03 18:08:00,
2013-07-03 14:16:00,88.0,73.0,30.04,SE,126,2.0,7.0,61,0.00,,,0.00,,2013-07-03 18:16:00,
2013-07-03 14:37:00,86.0,73.0,30.04,SW,225,2.0,6.0,65,0.00,,,0.00,,2013-07-03 18:37:00,
2013-07-03 14:46:00,86.0,73.0,30.04,SW,225,2.0,6.0,65,0.00,,,0.00,,2013-07-03 18:46:00,
2013-07-03 14:59:00,86.0,73.0,30.04,West,280,2.0,6.0,66,0.00,,,0.00,,2013-07-03 18:59:00,
2013-07-03 15:16:00,88.0,75.0,30.03,SSE,153,1.0,3.0,66,0.00,,,0.00,,2013-07-03 19:16:00,
2013-07-03 15:30:00,89.0,75.0,30.03,WSW,251,2.0,6.0,63,0.00,,,0.00,,2013-07-03 19:30:00,
2013-07-03 15:38:00,90.0,74.0,30.02,SSW,194,2.0,8.0,59,0.00,,,0.00,,2013-07-03 19:38:00,
2013-07-03 16:05:00,91.0,74.0,30.01,SE,142,3.0,9.0,57,0.00,,,0.00,,2013-07-03 20:05:00,
2013-07-03 16:15:00,92.0,75.0,30.01,WSW,257,3.0,7.0,57,0.00,,,0.00,,2013-07-03 20:15:00,
2013-07-03 16:37:00,90.0,73.0,30.01,West,263,2.0,9.0,58,0.00,,,0.00,,2013-07-03 20:37:00,
2013-07-03 16:57:00,89.0,72.0,30.01,SW,222,3.0,7.0,58,0.00,,,0.00,,2013-07-03 20:57:00,
2013-07-03 17:06:00,88.0,72.0,30.01,SW,220,4.0,8.0,60,0.00,,,0.00,,2013-07-03 21:06:00,
2013-07-03 17:14:00,88.0,72.0,30.01,SW,220,4.0,8.0,60,0.00,,,0.00,,2013-07-03 21:14:00,
2013-07-03 17:36:00,88.0,74.0,30.00,NE,48,0.0,5.0,63,0.00,,,0.00,,2013-07-03 21:36:00,
2013-07-03 17:45:00,88.0,73.0,30.00,SSW,194,3.0,8.0,62,0.00,,,0.00,,2013-07-03 21:45:00,
2013-07-03 17:55:00,87.0,73.0,30.00,SSW,205,2.0,7.0,63,0.00,,,0.00,,2013-07-03 21:55:00,
2013-07-03 18:06:00,87.0,73.0,30.00,South,169,6.0,13.0,63,0.00,,,0.00,,2013-07-03 22:06:00,
2013-07-03 18:16:00,87.0,73.0,30.00,South,169,6.0,13.0,63,0.00,,,0.00,,2013-07-03 22:16:00,
2013-07-03 18:26:00,86.0,72.0,30.00,SW,221,2.0,6.0,64,0.00,,,0.00,,2013-07-03 22:26:00,
2013-07-03 18:38:00,86.0,73.0,30.00,SW,215,2.0,9.0,65,0.00,,,0.00,,2013-07-03 22:38:00,
2013-07-03 18:46:00,86.0,73.0,30.00,SW,215,2.0,9.0,65,0.00,,,0.00,,2013-07-03 22:46:00,
2013-07-03 18:57:00,86.0,74.0,29.99,ESE,119,1.0,6.0,67,0.00,,,0.00,,2013-07-03 22:57:00,
2013-07-03 19:07:00,85.0,73.0,30.00,SSW,211,1.0,9.0,67,0.00,,,0.00,,2013-07-03 23:07:00,
2013-07-03 19:14:00,85.0,73.0,30.00,SSW,211,1.0,9.0,67,0.00,,,0.00,,2013-07-03 23:14:00,
2013-07-03 19:25:00,85.0,73.0,30.00,SSW,194,1.0,8.0,68,0.00,,,0.00,,2013-07-03 23:25:00,
2013-07-03 19:40:00,85.0,73.0,29.99,SW,214,2.0,7.0,67,0.00,,,0.00,,2013-07-03 23:40:00,
2013-07-03 19:45:00,85.0,73.0,29.99,SW,214,2.0,7.0,67,0.00,,,0.00,,2013-07-03 23:45:00,
2013-07-03 19:56:00,84.0,72.0,29.99,South,191,0.0,6.0,67,0.00,,,0.00,,2013-07-03 23:56:00,
2013-07-03 20:06:00,84.0,74.0,30.00,SE,139,0.0,2.0,71,0.00,,,0.00,,2013-07-04 00:06:00,
2013-07-03 20:17:00,84.0,74.0,30.00,SE,139,0.0,2.0,71,0.00,,,0.00,,2013-07-04 00:17:00,
2013-07-03 20:37:00,82.0,73.0,30.01,South,188,0.0,2.0,74,0.00,,,0.00,,2013-07-04 00:37:00,
2013-07-03 20:49:00,82.0,73.0,30.01,South,188,0.0,2.0,74,0.00,,,0.00,,2013-07-04 00:49:00,
2013-07-03 20:57:00,81.0,74.0,30.01,SSW,206,0.0,1.0,79,0.00,,,0.00,,2013-07-04 00:57:00,
2013-07-03 21:05:00,80.0,73.0,30.02,SE,138,0.0,2.0,80,0.00,,,0.00,,2013-07-04 01:05:00,
2013-07-03 21:16:00,80.0,73.0,30.02,SE,138,0.0,2.0,80,0.00,,,0.00,,2013-07-04 01:16:00,
2013-07-03 21:44:00,80.0,73.0,30.03,South,181,0.0,6.0,80,0.00,,,0.00,,2013-07-04 01:44:00,
2013-07-03 21:57:00,80.0,74.0,30.03,SE,136,0.0,5.0,81,0.00,,,0.00,,2013-07-04 01:57:00,
2013-07-03 22:08:00,80.0,74.0,30.03,SE,136,0.0,5.0,81,0.00,,,0.00,,2013-07-04 02:08:00,
2013-07-03 22:24:00,79.0,73.0,30.04,WSW,242,1.0,4.0,82,0.00,,,0.00,,2013-07-04 02:24:00,
2013-07-03 22:39:00,79.0,73.0,30.04,WSW,242,1.0,4.0,82,0.00,,,0.00,,2013-07-04 02:39:00,
2013-07-03 22:49:00,79.0,73.0,30.04,SSE,163,0.0,4.0,83,0.00,,,0.00,,2013-07-04 02:49:00,
2013-07-03 23:05:00,77.0,72.0,30.03,SE,146,0.0,2.0,86,0.00,,,0.00,,2013-07-04 03:05:00,
2013-07-03 23:15:00,77.0,72.0,30.03,SE,146,0.0,2.0,86,0.00,,,0.00,,2013-07-04 03:15:00,
2013-07-03 23:36:00,77.0,73.0,30.04,South,182,0.0,3.0,87,0.00,,,0.00,,2013-07-04 03:36:00,
2013-07-03 23:46:00,76.0,72.0,30.04,South,185,0.0,0.0,88,0.00,,,0.00,,2013-07-04 03:46:00,